Nearby METAR Reports

 

KVCT - Victoria, Texas, USA
Distance from station: E 12mi, 20km
Updated: Fri, 07-Oct-2022 1:51pm CDT
Overcast
Overcast
 Wind from calm
Wind: Calm
Temperature: 86°F , 30°C
Heat Index: 85°F , 29°C
Dew Point: 59°F , 15°C
Humidity: 40%
Barometer: 30.18 inHg , 1022 hPa
Clouds: Overcast
Visibility: 10 miles , 16 km
Cloud details: Overcast 9000 ft
2022/10/07 18:51 KVCT 071851Z 00000KT 10SM OVC090 30/15 A3018 RMK AO2 SLP218 T03000150
KPKV - Port Lavaca, Texas, USA
Distance from station: ESE 31mi, 50km
Updated: Fri, 07-Oct-2022 2:35pm CDT
Clear
Clear
 Wind from NE
Wind: NE 5 mph , 7 km/h
Temperature: 84°F , 29°C
Heat Index: 84°F , 29°C
Dew Point: 61°F , 16°C
Humidity: 45%
Barometer: 30.16 inHg , 1021.3 hPa
Clouds: Clear
Visibility: 10 miles , 16 km
2022/10/07 19:35 KPKV 071935Z AUTO 05004KT 10SM CLR 29/16 A3016 RMK AO2 T02850164
 
KT20 - Gonzales Muni, Texas, USA
Distance from station: NNW 50mi, 81km
Updated: Fri, 07-Oct-2022 2:35pm CDT
Partly cloudy
Partly cloudy
 Wind from ENE
Wind: ENE 5 mph , 7 km/h
Temperature: 84°F , 29°C
Heat Index: 83°F , 28°C
Dew Point: 57°F , 14°C
Humidity: 40%
Barometer: 30.17 inHg , 1021.7 hPa
Clouds: Partly cloudy
Visibility: 10 miles , 16 km
Cloud details: Partly cloudy 12000 ft
2022/10/07 19:35 KT20 071935Z AUTO 06004KT 10SM SCT120 29/14 A3017 RMK AO2 T02860139
KBEA - Beeville Muni, Texas, USA
Distance from station: SW 51mi, 83km
Updated: Fri, 07-Oct-2022 2:35pm CDT
Clear
Clear
 Wind from ENE
Wind: ENE 8 mph , 13 km/h
Temperature: 81°F , 27°C
Heat Index: 82°F , 28°C
Dew Point: 61°F , 16°C
Humidity: 51%
Barometer: 30.15 inHg , 1021 hPa
Clouds: Clear
Visibility: 10 miles , 16 km
2022/10/07 19:35 KBEA 071935Z AUTO 06007KT 10SM CLR 27/16 A3015 RMK AO2 T02670157
 
KRKP - Rockport, Texas, USA
Distance from station: S 53mi, 86km
Updated: Fri, 07-Oct-2022 1:53pm CDT
Partly cloudy
Partly cloudy
 Wind from ENE
Wind: ENE 7 mph , 11 km/h
Temperature: 82°F , 28°C
Heat Index: 84°F , 29°C
Dew Point: 64°F , 18°C
Humidity: 55%
Barometer: 30.16 inHg , 1021.3 hPa
Clouds: Partly cloudy
Visibility: 10 miles , 16 km
Cloud details: Few Clouds 10000 ft
Partly cloudy 12000 ft
2022/10/07 18:53 KRKP 071853Z AUTO 06006KT 10SM FEW100 SCT120 28/18 A3016 RMK AO2 SLP214 T02780183
KPSX - Palacios, Texas, USA
Distance from station: E 55mi, 88km
Updated: Fri, 07-Oct-2022 1:53pm CDT
Clear
Clear
 Wind from E
Wind: E 5 mph , 7 km/h
Temperature: 82°F , 28°C
Heat Index: 82°F , 28°C
Dew Point: 59°F , 15°C
Humidity: 45%
Barometer: 30.16 inHg , 1021.3 hPa
Clouds: Clear
Visibility: 10 miles , 16 km
2022/10/07 18:53 KPSX 071853Z AUTO 08004KT 10SM CLR 28/15 A3016 RMK AO2 SLP213 T02830150
 
KTFP - Ingleside/Tp Mcc, Texas, USA
Distance from station: S 65mi, 104km
Updated: Fri, 07-Oct-2022 2:15pm CDT
Clear
Clear
 Wind from E
Wind: E 12 mph , 19 km/h
Temperature: 84°F , 29°C
Heat Index: 85°F , 29°C
Dew Point: 64°F , 18°C
Humidity: 51%
Barometer: 30.13 inHg , 1020.3 hPa
Clouds: Clear
Visibility: 10 miles , 16 km
2022/10/07 19:15 KTFP 071915Z AUTO 09010KT 10SM CLR 29/18 A3013 RMK AO2 T02860181
K66R - Columbus, Texas, USA
Distance from station: NE 66mi, 106km
Updated: Fri, 07-Oct-2022 2:35pm CDT
Light rain, Mostly cloudy
Light rain, Mostly cloudy
 Wind from NNW
Wind: NNW 3 mph , 6 km/h
Temperature: 79°F , 26°C
Dew Point: 59°F , 15°C
Humidity: 51%
Barometer: 30.19 inHg , 1022.4 hPa
Summary: Light rain
Clouds: Mostly cloudy
Visibility: 10 miles , 16 km
Cloud details: Partly cloudy 3700 ft
Partly cloudy 6000 ft
Mostly cloudy 12000 ft
2022/10/07 19:35 K66R 071935Z AUTO 34003KT 10SM -RA SCT037 SCT060 BKN120 26/15 A3019 RMK AO2 T02630150
 
KARM - Wharton, Texas, USA
Distance from station: ENE 66mi, 106km
Updated: Fri, 07-Oct-2022 2:35pm CDT
Clear
Clear
 Wind from N
Wind: N 6 mph , 9 km/h
Temperature: 86°F , 30°C
Dew Point: 54°F , 12°C
Humidity: 33%
Barometer: 30.16 inHg , 1021.3 hPa
Clouds: Clear
Visibility: 10 miles , 16 km
2022/10/07 19:35 KARM 071935Z AUTO 36005KT 10SM CLR 30/12 A3016 RMK AO2 T02950121 TSNO
KRAS - Port Aransas, Texas, USA
Distance from station: S 71mi, 115km
Updated: Fri, 07-Oct-2022 2:35pm CDT
Mostly cloudy
Mostly cloudy
 Wind from ENE
Wind: ENE 14 mph , 22 km/h
Barometer: 30.16 inHg , 1021.3 hPa
Clouds: Mostly cloudy
Visibility: 10 miles , 16 km
Cloud details: Mostly cloudy 9000 ft
Mostly cloudy 12000 ft
2022/10/07 19:35 KRAS 071935Z AUTO 06012KT 10SM BKN090 BKN120 A3016 RMK AO2
 
KELA - Eagle Lake, Texas, USA
Distance from station: NE 72mi, 115km
Updated: Fri, 07-Oct-2022 2:35pm CDT
Clear
Clear
 Wind from NNW
Wind: NNW 5 mph , 7 km/h
Temperature: 82°F , 28°C
Heat Index: 82°F , 28°C
Dew Point: 61°F , 16°C
Humidity: 48%
Barometer: 30.17 inHg , 1021.7 hPa
Clouds: Clear
Visibility: 10 miles , 16 km
2022/10/07 19:35 KELA 071935Z AUTO 34004KT 10SM CLR 28/16 A3017 RMK AO2 T02780156
K3T5 - La Grange, Texas, USA
Distance from station: N 73mi, 118km
Updated: Thu, 22-Sep-2022 11:55am CDT
NOT Current

 
2022/09/22 16:55 K3T5 221655Z AUTO RMK AO2 PWINO PNO TSNO
 
KBYY - Bay City, Texas, USA
Distance from station: E 77mi, 124km
Updated: Fri, 07-Oct-2022 2:35pm CDT
Clear
Clear
 Wind from N
Wind: N 5 mph , 7 km/h
Temperature: 82°F , 28°C
Heat Index: 82°F , 28°C
Dew Point: 57°F , 14°C
Humidity: 42%
Barometer: 30.15 inHg , 1021 hPa
Clouds: Clear
Visibility: 10 miles , 16 km
2022/10/07 19:35 KBYY 071935Z AUTO 35004KT 10SM CLR 28/14 A3015 RMK AO2 T02850144
KCRP - Corpus Christi, Texas, USA
Distance from station: SSW 78mi, 126km
Updated: Fri, 07-Oct-2022 1:51pm CDT
Light rain, Overcast
Light rain, Overcast
 Wind from ENE
Wind: ENE 15 mph , 24 km/h
Temperature: 84°F , 29°C
Heat Index: 85°F , 29°C
Dew Point: 64°F , 18°C
Humidity: 51%
Barometer: 30.15 inHg , 1021 hPa
Summary: Light rain
Clouds: Overcast
Visibility: 10 miles , 16 km
Cloud details: Few Clouds 3300 ft
Partly cloudy 10000 ft
Mostly cloudy 12000 ft
Overcast 14000 ft
2022/10/07 18:51 KCRP 071851Z 06013KT 10SM -RA FEW033 SCT100 BKN120 OVC140 29/18 A3015 RMK AO2 RAE09B38 SLP208 P0000 T02940183
 
KNGP - C. Christi Nas, Texas, USA
Distance from station: S 81mi, 130km
Updated: Fri, 07-Oct-2022 1:56pm CDT
Overcast
Overcast
 Wind from E
Wind: E 9 mph , 15 km/h
Temperature: 82°F , 28°C
Heat Index: 86°F , 30°C
Dew Point: 70°F , 21°C
Humidity: 66%
Barometer: 30.15 inHg , 1021 hPa
Clouds: Overcast
Visibility: 10 miles , 16 km
Cloud details: Few Clouds 3500 ft
Mostly cloudy 11000 ft
Overcast 15000 ft
2022/10/07 18:56 KNGP 071856Z 09008KT 10SM FEW035 BKN110 OVC150 28/21 A3015 RMK AO2 RAE1758 SLP208 P0000 T02780211
KRBO - Robstown/Nueces, Texas, USA
Distance from station: SSW 81mi, 130km
Updated: Fri, 07-Oct-2022 2:35pm CDT
Clear
Clear
 
Temperature: 82°F , 28°C
Heat Index: 82°F , 28°C
Dew Point: 61°F , 16°C
Humidity: 48%
Barometer: 30.14 inHg , 1020.7 hPa
Clouds: Clear
Visibility: 10 miles , 16 km
2022/10/07 19:35 KRBO 071935Z AUTO 10SM CLR 28/16 A3014 RMK AO2 T02800161
 
KBAZ - New Braunfels, Texas, USA
Distance from station: NW 81mi, 131km
Updated: Fri, 07-Oct-2022 1:51pm CDT
Clear
Clear
 Wind from SSE
Wind: SSE 5 mph , 7 km/h
Temperature: 84°F , 29°C
Heat Index: 83°F , 28°C
Dew Point: 57°F , 14°C
Humidity: 40%
Barometer: 30.19 inHg , 1022.4 hPa
Clouds: Clear
Visibility: 10 miles , 16 km
2022/10/07 18:51 KBAZ 071851Z 15004KT 10SM CLR 29/14 A3019 RMK AO2 SLP215 T02940139
KRND - Randolph Afb, Texas, USA
Distance from station: NW 82mi, 132km
Updated: Fri, 07-Oct-2022 1:55pm CDT
Mostly cloudy
Mostly cloudy
 Wind from calm
Wind: Calm
Temperature: 82°F , 28°C
Heat Index: 81°F , 27°C
Dew Point: 55°F , 13°C
Humidity: 40%
Barometer: 30.17 inHg , 1021.7 hPa
Clouds: Mostly cloudy
Visibility: 10 miles , 16 km
Cloud details: Mostly cloudy 14000 ft
2022/10/07 18:55 KRND 071855Z AUTO 00000KT 10SM BKN140 28/13 A3017 RMK AO2 DZB20E29 SLP210 P0000 T02830126
 
KHYI - San Marcos, Texas, USA
Distance from station: NNW 84mi, 135km
Updated: Fri, 07-Oct-2022 1:56pm CDT
Few Clouds
Few Clouds
 Wind from ENE
Wind: ENE 6 mph , 9 km/h
Temperature: 86°F , 30°C
Dew Point: 54°F , 12°C
Humidity: 33%
Barometer: 30.20 inHg , 1022.7 hPa
Clouds: Few Clouds
Visibility: 10 miles , 16 km
Cloud details: Few Clouds 11000 ft
2022/10/07 18:56 KHYI 071856Z 07005KT 10SM FEW110 30/12 A3020 RMK AO2 SLPNO T03000120 $
KPEZ - Pleasanton Muni, Texas, USA
Distance from station: W 84mi, 135km
Updated: Fri, 07-Oct-2022 2:35pm CDT
Partly cloudy
Partly cloudy
 Wind from ESE
Wind: ESE 5 mph , 7 km/h
Temperature: 84°F , 29°C
Heat Index: 84°F , 29°C
Dew Point: 61°F , 16°C
Humidity: 45%
Barometer: 30.18 inHg , 1022 hPa
Clouds: Partly cloudy
Visibility: 10 miles , 16 km
Cloud details: Partly cloudy 12000 ft
2022/10/07 19:35 KPEZ 071935Z AUTO 12004KT 10SM SCT120 29/16 A3018 RMK AO2 T02880159